Time;durP1;ratioP1;P1;durP2;ratioP2;P2;SDS_P1;SDS_P2;PMS_P1;PMS_P2;Temp;Humidity;BMP_temperature;BMP_pressure;BME280_temperature;BME280_humidity;BME280_pressure;Samples;Min_cycle;Max_cycle;Signal;HPM_P1;HPM_P2
2023/07/31 00:02:14;;;;;;;18.85;7.85;;;;;;;17.70;85.35;100967.66;5040887;28;20144;-83
2023/07/31 00:04:40;;;;;;;17.17;7.28;;;;;;;17.65;85.41;100964.44;5040113;28;20812;-83
2023/07/31 00:07:06;;;;;;;15.93;7.70;;;;;;;17.65;85.22;100959.94;5041604;28;20032;-83
2023/07/31 00:09:32;;;;;;;20.95;7.72;;;;;;;17.70;85.51;100975.66;5049789;28;20036;-83
2023/07/31 00:11:58;;;;;;;18.10;6.80;;;;;;;17.74;85.20;100969.19;5048518;28;20090;-83
2023/07/31 00:14:23;;;;;;;21.02;6.93;;;;;;;17.74;85.19;100963.84;5038115;28;20017;-84
2023/07/31 00:16:48;;;;;;;16.90;6.18;;;;;;;17.72;84.85;100963.03;5038464;28;20025;-83
2023/07/31 00:19:14;;;;;;;17.55;6.55;;;;;;;17.74;85.24;100967.38;5042250;28;20039;-82
2023/07/31 00:21:39;;;;;;;16.50;6.10;;;;;;;17.71;85.24;100962.19;5052273;28;20038;-83
2023/07/31 00:24:04;;;;;;;16.88;5.10;;;;;;;17.73;84.80;100954.09;5030545;28;20722;-82
2023/07/31 00:26:30;;;;;;;15.75;5.57;;;;;;;17.70;85.15;100964.97;5039325;28;20031;-82
2023/07/31 00:28:55;;;;;;;13.23;5.25;;;;;;;17.69;85.32;100964.13;5038459;28;20052;-83
2023/07/31 00:31:20;;;;;;;19.88;6.07;;;;;;;17.74;85.04;100956.66;5043313;28;20494;-82
2023/07/31 00:33:45;;;;;;;15.15;5.03;;;;;;;17.76;84.42;100957.41;5031901;28;20125;-83
2023/07/31 00:36:11;;;;;;;12.95;5.53;;;;;;;17.78;83.77;100951.97;5052142;28;20029;-83
2023/07/31 00:38:36;;;;;;;16.98;5.43;;;;;;;17.75;84.31;100950.34;5042379;28;20395;-82
2023/07/31 00:41:01;;;;;;;15.55;5.50;;;;;;;17.74;84.18;100961.16;5035306;28;20045;-83
2023/07/31 00:43:26;;;;;;;13.52;5.35;;;;;;;17.70;84.02;100955.13;5030385;28;20061;-82
2023/07/31 00:45:53;;;;;;;12.90;5.63;;;;;;;17.73;84.21;100954.97;5036416;28;20049;-82
2023/07/31 00:48:18;;;;;;;17.05;5.60;;;;;;;17.74;84.17;100951.31;5033094;28;20027;-82
2023/07/31 00:50:44;;;;;;;18.92;5.88;;;;;;;17.68;84.60;100958.88;5038954;28;20028;-82
2023/07/31 00:53:09;;;;;;;14.77;4.95;;;;;;;17.68;84.55;100945.53;5041374;28;20029;-82
2023/07/31 00:55:35;;;;;;;11.48;5.25;;;;;;;17.68;84.54;100954.41;5046647;28;20037;-83
2023/07/31 00:58:00;;;;;;;13.88;5.65;;;;;;;17.68;84.54;100956.22;5042328;28;20074;-83
2023/07/31 01:00:25;;;;;;;15.63;5.25;;;;;;;17.66;84.53;100950.09;5041221;28;20028;-82
2023/07/31 01:02:51;;;;;;;17.90;4.85;;;;;;;17.65;84.51;100943.91;5060612;28;20025;-83
2023/07/31 01:05:23;;;;;;;14.50;5.03;;;;;;;17.67;84.26;100939.28;5052010;28;20025;-82
2023/07/31 01:08:01;;;;;;;18.90;5.30;;;;;;;17.67;84.47;100941.97;5037200;28;20025;-83
2023/07/31 01:10:34;;;;;;;11.60;4.38;;;;;;;17.76;83.65;100935.16;5052104;28;20045;-83
2023/07/31 01:13:00;;;;;;;14.40;4.40;;;;;;;17.69;83.61;100933.84;5046892;28;20037;-82
2023/07/31 01:15:25;;;;;;;15.68;5.07;;;;;;;17.73;83.90;100940.72;5036352;28;20029;-82
2023/07/31 01:17:51;;;;;;;11.98;3.70;;;;;;;17.78;83.17;100939.47;5039064;28;20078;-83
2023/07/31 01:20:23;;;;;;;15.55;4.63;;;;;;;17.66;83.84;100936.72;5044867;28;20107;-82
2023/07/31 01:22:54;;;;;;;13.98;4.32;;;;;;;17.71;82.89;100938.13;5048908;28;20086;-83
2023/07/31 01:25:38;;;;;;;13.20;5.23;;;;;;;17.56;83.97;100937.34;5040151;28;20031;-82
2023/07/31 01:28:07;;;;;;;13.80;4.88;;;;;;;17.56;83.45;100932.00;5042990;28;20489;-82
2023/07/31 01:30:37;;;;;;;13.50;4.97;;;;;;;17.57;83.34;100943.56;5042899;28;20515;-82
2023/07/31 01:33:06;;;;;;;16.30;4.53;;;;;;;17.55;83.62;100941.00;5049483;28;20029;-82
2023/07/31 01:35:33;;;;;;;14.50;5.03;;;;;;;17.54;83.55;100936.63;5051908;28;20066;-82
2023/07/31 01:37:59;;;;;;;14.05;4.97;;;;;;;17.54;82.94;100931.28;5044698;28;20029;-82
2023/07/31 01:40:24;;;;;;;11.82;4.70;;;;;;;17.58;82.54;100934.59;5026177;28;20150;-82
2023/07/31 01:42:49;;;;;;;12.32;4.50;;;;;;;17.58;82.72;100931.91;5039267;28;20071;-82
2023/07/31 01:45:15;;;;;;;15.93;5.28;;;;;;;17.57;82.21;100928.38;5029928;28;20038;-82
2023/07/31 01:47:40;;;;;;;12.57;4.72;;;;;;;17.56;82.14;100926.66;5047562;28;20365;-82
2023/07/31 01:50:05;;;;;;;14.13;5.05;;;;;;;17.55;82.06;100927.63;5047160;28;20119;-82
2023/07/31 01:52:31;;;;;;;13.77;4.90;;;;;;;17.59;82.49;100920.25;5045394;28;20044;-82
2023/07/31 01:54:56;;;;;;;13.60;4.18;;;;;;;17.56;82.20;100923.13;5034350;28;20044;-82
2023/07/31 01:57:21;;;;;;;13.35;5.03;;;;;;;17.48;81.87;100910.28;5047394;28;20049;-81
2023/07/31 01:59:46;;;;;;;16.35;5.40;;;;;;;17.52;81.99;100921.63;5046647;28;20024;-82
2023/07/31 02:02:13;;;;;;;15.93;4.32;;;;;;;17.49;81.82;100911.16;5038413;28;20397;-82
2023/07/31 02:04:39;;;;;;;20.50;5.75;;;;;;;17.42;81.53;100912.53;5038100;28;20029;-82
2023/07/31 02:07:05;;;;;;;12.98;4.63;;;;;;;17.43;81.32;100908.88;5033961;28;20485;-82
2023/07/31 02:09:30;;;;;;;14.75;4.35;;;;;;;17.38;81.59;100903.84;5039622;28;20021;-82
2023/07/31 02:11:55;;;;;;;14.10;4.72;;;;;;;17.34;81.39;100905.00;5037564;28;20088;-82
2023/07/31 02:14:20;;;;;;;14.77;5.18;;;;;;;17.34;81.33;100897.84;5040093;28;20023;-82
2023/07/31 02:16:46;;;;;;;14.90;5.38;;;;;;;17.33;81.67;100896.13;5035963;28;20025;-82
2023/07/31 02:19:11;;;;;;;18.00;5.15;;;;;;;17.34;81.08;100894.31;5047519;28;20082;-81
2023/07/31 02:21:36;;;;;;;14.27;4.95;;;;;;;17.36;81.15;100888.91;5041165;28;20044;-82
2023/07/31 02:24:02;;;;;;;14.13;4.97;;;;;;;17.36;80.54;100889.75;5034392;28;20055;-82
2023/07/31 02:26:27;;;;;;;12.60;4.82;;;;;;;17.34;80.30;100880.97;5033992;28;20043;-82
2023/07/31 02:28:52;;;;;;;13.15;4.88;;;;;;;17.36;80.61;100884.41;5044556;28;20035;-82
2023/07/31 02:31:17;;;;;;;12.60;5.40;;;;;;;17.34;80.18;100881.81;5034476;28;20075;-82
2023/07/31 02:33:43;;;;;;;19.13;5.13;;;;;;;17.36;80.20;100886.22;5040808;28;20039;-82
2023/07/31 02:36:08;;;;;;;13.27;5.25;;;;;;;17.36;79.75;100884.41;5047845;28;20032;-82
2023/07/31 02:38:33;;;;;;;13.20;5.40;;;;;;;17.34;80.11;100886.31;5036602;28;20051;-82
2023/07/31 02:40:59;;;;;;;17.63;5.72;;;;;;;17.37;79.80;100880.75;5032488;28;20025;-82
2023/07/31 02:43:24;;;;;;;15.02;5.50;;;;;;;17.36;79.80;100879.06;5038970;28;20041;-81
2023/07/31 02:45:52;;;;;;;11.18;4.82;;;;;;;17.34;80.15;100880.97;5037411;28;20430;-82
2023/07/31 02:48:18;;;;;;;13.73;5.03;;;;;;;17.34;79.50;100879.13;5033030;28;20033;-81
2023/07/31 02:50:44;;;;;;;9.82;5.00;;;;;;;17.34;80.03;100875.63;5036420;28;20391;-82
2023/07/31 02:53:09;;;;;;;22.55;5.28;;;;;;;17.36;79.14;100878.19;5039881;28;20025;-82
2023/07/31 02:55:34;;;;;;;18.27;5.10;;;;;;;17.36;79.38;100868.38;5050283;28;20064;-81
2023/07/31 02:58:00;;;;;;;14.40;4.93;;;;;;;17.34;79.45;100873.78;5054155;28;20546;-82
2023/07/31 03:00:25;;;;;;;13.20;4.97;;;;;;;17.31;79.74;100874.03;5032936;28;20036;-82
2023/07/31 03:02:50;;;;;;;15.65;5.60;;;;;;;17.32;79.45;100874.88;5035426;28;20029;-81
2023/07/31 03:05:16;;;;;;;13.20;5.10;;;;;;;17.28;79.94;100871.53;5046512;28;20945;-82
2023/07/31 03:07:41;;;;;;;9.50;4.45;;;;;;;17.26;80.00;100865.47;5041101;28;20024;-82
2023/07/31 03:10:07;;;;;;;11.82;4.68;;;;;;;17.26;79.59;100862.78;5040069;28;20021;-82
2023/07/31 03:12:32;;;;;;;11.55;4.70;;;;;;;17.25;79.93;100865.53;5038470;28;20051;-82
2023/07/31 03:14:57;;;;;;;14.50;4.95;;;;;;;17.27;79.71;100867.16;5039114;28;21946;-82
2023/07/31 03:17:23;;;;;;;13.32;4.90;;;;;;;17.25;79.79;100870.88;5039022;28;20021;-81
2023/07/31 03:19:48;;;;;;;16.15;5.32;;;;;;;17.24;79.94;100870.03;5048120;28;20426;-82
2023/07/31 03:22:13;;;;;;;13.93;5.22;;;;;;;17.28;79.51;100862.69;5045161;28;20028;-82
2023/07/31 03:24:38;;;;;;;11.90;4.78;;;;;;;17.28;79.77;100871.53;5045758;28;20063;-81
2023/07/31 03:27:04;;;;;;;13.48;4.95;;;;;;;17.25;80.05;100866.44;5036043;28;20400;-81
2023/07/31 03:29:29;;;;;;;14.52;4.68;;;;;;;17.20;80.42;100868.53;5040897;28;20036;-82
2023/07/31 03:31:55;;;;;;;10.70;4.55;;;;;;;17.23;79.87;100856.78;5041087;28;20116;-81
2023/07/31 03:34:20;;;;;;;12.20;4.95;;;;;;;17.27;80.09;100861.81;5048846;28;20367;-82
2023/07/31 03:36:45;;;;;;;13.55;4.30;;;;;;;17.24;80.38;100854.00;5040836;28;20021;-82
2023/07/31 03:39:11;;;;;;;14.13;5.18;;;;;;;17.22;80.44;100853.25;5053098;28;20036;-82
2023/07/31 03:41:36;;;;;;;12.68;5.35;;;;;;;17.26;80.31;100845.91;5038674;28;20033;-82
2023/07/31 03:44:01;;;;;;;16.45;4.85;;;;;;;17.27;80.21;100843.13;5040025;28;20041;-82
2023/07/31 03:46:27;;;;;;;12.20;4.68;;;;;;;17.27;80.24;100843.13;5036153;28;20068;-82
2023/07/31 03:48:52;;;;;;;15.40;4.78;;;;;;;17.31;80.20;100833.09;5034067;28;20025;-81
2023/07/31 03:51:17;;;;;;;12.18;4.90;;;;;;;17.29;80.73;100833.16;5041343;28;20035;-82
2023/07/31 03:53:43;;;;;;;15.75;4.70;;;;;;;17.33;80.54;100839.16;5048395;28;20036;-81
2023/07/31 03:56:09;;;;;;;13.13;4.45;;;;;;;17.34;80.30;100833.72;5040373;28;20048;-81
2023/07/31 03:58:35;;;;;;;12.43;4.32;;;;;;;17.38;80.17;100829.00;5041374;28;20104;-81
2023/07/31 04:01:01;;;;;;;16.02;4.75;;;;;;;17.40;80.26;100827.09;5033702;28;20033;-81
2023/07/31 04:03:26;;;;;;;10.50;4.05;;;;;;;17.44;80.14;100822.38;5040145;28;20032;-82
2023/07/31 04:05:54;;;;;;;13.80;4.80;;;;;;;17.41;80.49;100820.78;5037231;28;20012;-81
2023/07/31 04:08:19;;;;;;;10.38;4.20;;;;;;;17.49;80.38;100820.28;5051623;28;20033;-82
2023/07/31 04:10:44;;;;;;;15.40;4.93;;;;;;;17.49;80.25;100802.41;5037007;28;20040;-82
2023/07/31 04:13:10;;;;;;;12.60;4.47;;;;;;;17.53;80.50;100805.72;5035644;28;20043;-82
2023/07/31 04:15:35;;;;;;;14.82;4.93;;;;;;;17.56;80.35;100802.84;5032285;28;20494;-79
2023/07/31 04:18:00;;;;;;;12.40;4.45;;;;;;;17.59;80.31;100805.31;5040475;28;20108;-79
2023/07/31 04:20:25;;;;;;;13.95;4.90;;;;;;;17.57;80.35;100800.03;5041910;28;20024;-79
2023/07/31 04:22:51;;;;;;;11.57;4.45;;;;;;;17.62;80.62;100805.06;5037922;28;20029;-79
2023/07/31 04:25:16;;;;;;;13.10;4.60;;;;;;;17.63;80.62;100795.25;5040706;28;20033;-79
2023/07/31 04:27:41;;;;;;;16.63;4.88;;;;;;;17.67;80.03;100794.03;5027443;28;20036;-79
2023/07/31 04:30:07;;;;;;;15.55;4.65;;;;;;;17.69;80.69;100801.00;5033704;28;20076;-79
2023/07/31 04:32:32;;;;;;;18.40;5.28;;;;;;;17.75;80.42;100802.44;5035193;28;20219;-79
2023/07/31 04:34:58;;;;;;;11.60;5.40;;;;;;;17.73;80.50;100791.84;5029189;28;20035;-79
2023/07/31 04:37:23;;;;;;;12.90;4.47;;;;;;;17.77;80.74;100801.38;5038074;28;20020;-79
2023/07/31 04:39:48;;;;;;;11.25;4.70;;;;;;;17.79;80.62;100793.22;5045952;28;20059;-79
2023/07/31 04:42:13;;;;;;;16.05;4.93;;;;;;;17.84;79.95;100793.75;5031509;28;20366;-79
2023/07/31 04:44:39;;;;;;;15.85;4.80;;;;;;;17.82;80.47;100795.69;5040425;28;20136;-78
2023/07/31 04:47:05;;;;;;;10.25;4.88;;;;;;;17.86;80.35;100781.16;5033032;28;20396;-79
2023/07/31 04:49:30;;;;;;;11.48;4.53;;;;;;;17.87;80.37;100782.00;5039722;28;20114;-78
2023/07/31 04:51:55;;;;;;;14.52;4.90;;;;;;;17.93;80.41;100782.41;5035691;28;20403;-79
2023/07/31 04:54:20;;;;;;;12.20;4.97;;;;;;;17.93;80.38;100770.84;5044167;28;20029;-79
2023/07/31 04:56:47;;;;;;;10.38;4.55;;;;;;;17.91;80.77;100778.13;5037959;28;20029;-79
2023/07/31 04:59:12;;;;;;;12.40;4.90;;;;;;;17.97;80.96;100772.34;5043482;28;20044;-79
2023/07/31 05:01:37;;;;;;;12.18;5.05;;;;;;;17.96;80.48;100768.81;5036692;28;20033;-78
2023/07/31 05:04:03;;;;;;;12.90;4.97;;;;;;;18.02;80.63;100764.84;5050499;28;20085;-79
2023/07/31 05:06:28;;;;;;;13.00;4.85;;;;;;;18.01;80.89;100755.09;5042552;28;20500;-79
2023/07/31 05:08:53;;;;;;;13.55;4.85;;;;;;;17.98;81.05;100761.50;5040701;28;20636;-79
2023/07/31 05:11:19;;;;;;;10.30;4.35;;;;;;;17.89;81.31;100767.53;5040682;28;20027;-79
2023/07/31 05:13:44;;;;;;;11.23;5.32;;;;;;;17.85;82.15;100766.88;5053528;28;20029;-79
2023/07/31 05:16:09;;;;;;;8.68;4.70;;;;;;;17.93;82.28;100755.66;5042992;28;20548;-79
2023/07/31 05:18:34;;;;;;;11.68;5.35;;;;;;;17.79;83.08;100753.97;5043105;28;20028;-79
2023/07/31 05:21:00;;;;;;;11.02;4.75;;;;;;;17.76;84.07;100758.66;5047597;28;20550;-79
2023/07/31 05:23:25;;;;;;;12.07;5.50;;;;;;;17.74;84.72;100750.75;5029650;28;20036;-79
2023/07/31 05:25:50;;;;;;;12.07;5.22;;;;;;;17.67;84.93;100764.63;5040199;28;20029;-79
2023/07/31 05:28:15;;;;;;;7.72;3.80;;;;;;;17.65;84.83;100759.41;5040609;28;20024;-79
2023/07/31 05:30:41;;;;;;;8.65;4.72;;;;;;;17.76;84.24;100756.84;5040052;28;20025;-79
2023/07/31 05:33:06;;;;;;;11.77;4.68;;;;;;;17.80;84.38;100754.81;5058241;28;20036;-79
2023/07/31 05:35:31;;;;;;;9.95;4.57;;;;;;;17.61;85.48;100757.91;5040855;28;20095;-79
2023/07/31 05:37:56;;;;;;;9.70;4.65;;;;;;;17.57;86.11;100756.41;5038888;28;20507;-79
2023/07/31 05:40:22;;;;;;;9.38;4.50;;;;;;;17.56;86.60;100760.06;5045982;28;20039;-79
2023/07/31 05:42:47;;;;;;;12.95;4.43;;;;;;;17.51;87.07;100756.84;5055360;28;20435;-80
2023/07/31 05:45:13;;;;;;;8.93;4.10;;;;;;;17.50;87.58;100752.47;5037899;28;20040;-80
2023/07/31 05:47:39;;;;;;;10.93;4.80;;;;;;;17.43;87.75;100740.50;5047580;28;20434;-79
2023/07/31 05:50:05;;;;;;;10.82;3.97;;;;;;;17.42;88.19;100750.34;5055512;28;20021;-80
2023/07/31 05:52:30;;;;;;;7.57;4.03;;;;;;;17.38;88.48;100742.66;5055133;28;20032;-79
2023/07/31 05:54:55;;;;;;;5.93;4.13;;;;;;;17.30;89.10;100722.66;5048941;28;20071;-80
2023/07/31 05:57:20;;;;;;;6.53;3.67;;;;;;;17.27;90.18;100725.56;5045775;28;20371;-80
2023/07/31 05:59:46;;;;;;;8.70;3.60;;;;;;;17.27;90.08;100725.56;5042489;28;20040;-80
2023/07/31 06:02:11;;;;;;;6.20;3.72;;;;;;;17.26;89.70;100734.53;5037161;28;20025;-80
2023/07/31 06:04:36;;;;;;;5.88;3.10;;;;;;;17.36;89.46;100725.88;5040187;28;20028;-80
2023/07/31 06:07:02;;;;;;;6.43;3.30;;;;;;;17.32;89.83;100726.09;5032014;28;20021;-79
2023/07/31 06:09:28;;;;;;;7.00;3.67;;;;;;;17.26;91.50;100731.00;5035695;28;20033;-80
2023/07/31 06:11:53;;;;;;;5.78;3.40;;;;;;;17.43;89.96;100724.47;5047046;28;20051;-80
2023/07/31 06:14:18;;;;;;;6.47;3.20;;;;;;;17.38;89.76;100722.13;5043928;28;20095;-80
2023/07/31 06:16:44;;;;;;;6.47;3.13;;;;;;;17.50;89.42;100726.59;5042250;28;20027;-80
2023/07/31 06:19:10;;;;;;;6.40;2.88;;;;;;;17.51;89.83;100722.09;5048646;28;20040;-80
2023/07/31 06:21:37;;;;;;;4.85;2.78;;;;;;;17.52;88.90;100716.66;5045868;28;20074;-81
2023/07/31 06:24:03;;;;;;;3.78;2.97;;;;;;;17.55;89.34;100718.25;5036740;28;20112;-80
2023/07/31 06:26:28;;;;;;;4.47;3.08;;;;;;;17.45;89.63;100712.72;5038267;28;20124;-80
2023/07/31 06:28:53;;;;;;;4.68;3.13;;;;;;;17.51;89.97;100714.09;5042832;28;20104;-80
2023/07/31 06:31:22;;;;;;;5.47;3.00;;;;;;;17.52;90.24;100705.09;5039218;28;20021;-80
2023/07/31 06:33:48;;;;;;;4.63;3.05;;;;;;;17.57;89.66;100700.28;5041891;28;20068;-81
2023/07/31 06:36:13;;;;;;;4.55;3.28;;;;;;;17.60;89.17;100714.28;5036275;28;20048;-81
2023/07/31 06:38:38;;;;;;;5.03;3.45;;;;;;;17.60;89.83;100711.63;5058236;28;20052;-80
2023/07/31 06:41:04;;;;;;;5.60;3.20;;;;;;;17.63;90.26;100707.03;5041290;28;20095;-80
2023/07/31 06:43:29;;;;;;;5.18;3.78;;;;;;;17.68;90.18;100702.22;5030847;28;20044;-80
2023/07/31 06:45:54;;;;;;;4.43;3.50;;;;;;;17.67;90.17;100695.13;5034346;28;20025;-81
2023/07/31 06:48:19;;;;;;;6.47;4.00;;;;;;;17.65;90.37;100697.06;5036569;28;20035;-81
2023/07/31 06:50:45;;;;;;;5.32;3.95;;;;;;;17.58;90.77;100688.66;5033842;28;20053;-81
2023/07/31 06:53:10;;;;;;;6.75;3.42;;;;;;;17.74;89.95;100691.94;5046438;28;20082;-80
2023/07/31 06:55:35;;;;;;;3.63;3.05;;;;;;;17.61;90.67;100688.41;5046616;28;20034;-80
2023/07/31 06:58:00;;;;;;;3.67;3.08;;;;;;;17.51;91.15;100682.00;5036634;28;20066;-81
2023/07/31 07:00:27;;;;;;;4.00;3.03;;;;;;;17.65;90.35;100687.22;5042763;28;20095;-80
2023/07/31 07:02:52;;;;;;;2.97;2.50;;;;;;;17.62;89.85;100687.44;5054558;28;20443;-84
2023/07/31 07:05:18;;;;;;;4.63;3.20;;;;;;;17.63;90.38;100691.00;5037153;28;20140;-83
2023/07/31 07:07:44;;;;;;;5.15;3.17;;;;;;;17.54;91.02;100682.66;5052909;28;20063;-83
2023/07/31 07:10:09;;;;;;;4.95;3.60;;;;;;;17.56;91.60;100685.22;5029845;28;20499;-83
2023/07/31 07:12:35;;;;;;;4.65;3.42;;;;;;;17.60;91.67;100678.69;5047766;28;20401;-83
2023/07/31 07:15:01;;;;;;;4.88;3.08;;;;;;;17.65;91.90;100679.19;5047751;28;20050;-83
2023/07/31 07:17:28;;;;;;;4.22;3.20;;;;;;;17.69;91.38;100671.81;5047825;28;20029;-82
2023/07/31 07:19:53;;;;;;;7.25;3.90;;;;;;;17.67;90.90;100674.59;5041010;28;20112;-82
2023/07/31 07:22:19;;;;;;;4.50;3.10;;;;;;;17.67;91.48;100669.22;5038639;28;20104;-82
2023/07/31 07:24:44;;;;;;;4.10;3.45;;;;;;;17.71;91.10;100665.38;5049347;28;20040;-83
2023/07/31 07:27:10;;;;;;;4.82;2.85;;;;;;;17.80;90.28;100672.75;5041864;28;20033;-83
2023/07/31 07:29:35;;;;;;;3.35;2.50;;;;;;;17.80;89.91;100658.53;5033278;28;20028;-84
2023/07/31 07:32:01;;;;;;;5.00;3.30;;;;;;;17.87;90.44;100669.66;5044149;28;20788;-83
2023/07/31 07:34:27;;;;;;;4.28;3.00;;;;;;;17.89;89.61;100651.66;5042708;28;20111;-84
2023/07/31 07:36:52;;;;;;;5.15;3.28;;;;;;;17.85;90.23;100672.44;5033664;28;20033;-84
2023/07/31 07:39:18;;;;;;;4.60;3.58;;;;;;;17.81;90.87;100673.63;5043069;28;20071;-82
2023/07/31 07:41:43;;;;;;;6.03;3.65;;;;;;;17.72;90.31;100668.91;5033264;28;20052;-83
2023/07/31 07:44:09;;;;;;;4.35;3.25;;;;;;;17.80;90.15;100670.09;5033109;28;20052;-83
2023/07/31 07:46:34;;;;;;;7.65;3.92;;;;;;;17.84;90.08;100676.06;5035108;28;20357;-83
2023/07/31 07:49:00;;;;;;;4.53;3.60;;;;;;;17.79;89.82;100671.06;5036865;28;20416;-82
2023/07/31 07:51:25;;;;;;;5.38;3.60;;;;;;;17.82;90.16;100667.31;5033540;28;20075;-82
2023/07/31 07:53:50;;;;;;;6.00;4.30;;;;;;;17.86;89.95;100671.47;5035283;28;20116;-83
2023/07/31 07:56:15;;;;;;;6.32;4.40;;;;;;;17.84;90.49;100663.56;5036169;28;20366;-82
2023/07/31 07:58:41;;;;;;;6.72;3.95;;;;;;;17.87;90.25;100667.84;5037674;28;20483;-83
2023/07/31 08:01:06;;;;;;;7.60;4.65;;;;;;;17.94;90.19;100657.53;5031820;28;20152;-82
2023/07/31 08:03:31;;;;;;;6.30;4.63;;;;;;;17.96;89.67;100661.81;5038114;28;20019;-82
2023/07/31 08:06:00;;;;;;;4.38;3.60;;;;;;;17.88;90.09;100666.00;5052339;28;20021;-83
2023/07/31 08:08:27;;;;;;;7.40;4.15;;;;;;;17.82;89.89;100672.69;5031795;28;20164;-82
2023/07/31 08:10:52;;;;;;;7.43;4.43;;;;;;;17.83;90.31;100663.69;5035781;28;20089;-83
2023/07/31 08:13:17;;;;;;;7.45;4.40;;;;;;;17.85;90.33;100662.56;5047334;28;20419;-82
2023/07/31 08:15:43;;;;;;;6.90;4.20;;;;;;;17.88;89.98;100664.19;5045473;28;20025;-82
2023/07/31 08:18:09;;;;;;;8.85;4.82;;;;;;;17.85;90.16;100656.38;5034622;28;20037;-82
2023/07/31 08:20:34;;;;;;;4.80;3.80;;;;;;;17.94;90.17;100662.88;5036843;28;20028;-82
2023/07/31 08:22:59;;;;;;;7.13;6.03;;;;;;;17.93;90.49;100659.34;5039562;28;20029;-82
2023/07/31 08:25:25;;;;;;;7.95;3.88;;;;;;;17.92;89.54;100668.34;5036307;28;20068;-82
2023/07/31 08:27:52;;;;;;;8.70;5.03;;;;;;;17.93;89.36;100659.34;5038536;28;20053;-82
2023/07/31 08:30:18;;;;;;;5.35;4.13;;;;;;;17.92;89.32;100657.66;5038312;28;20824;-82
2023/07/31 08:32:43;;;;;;;7.57;4.90;;;;;;;17.88;89.82;100656.16;5040440;28;20028;-81
2023/07/31 08:35:09;;;;;;;5.55;4.18;;;;;;;17.94;90.02;100661.06;5039260;28;20159;-83
2023/07/31 08:37:34;;;;;;;6.57;4.70;;;;;;;17.98;90.52;100659.00;5041863;28;20051;-82
2023/07/31 08:39:59;;;;;;;7.43;4.93;;;;;;;18.00;89.81;100659.75;5040883;28;20400;-82
2023/07/31 08:42:25;;;;;;;6.15;4.57;;;;;;;18.02;90.15;100661.34;5052157;28;20116;-83
2023/07/31 08:44:51;;;;;;;6.38;4.65;;;;;;;18.06;89.26;100659.31;5052778;28;20040;-83
2023/07/31 08:47:16;;;;;;;6.63;5.22;;;;;;;18.03;89.81;100664.88;5034600;28;20025;-82
2023/07/31 08:49:43;;;;;;;7.07;4.50;;;;;;;18.01;89.29;100656.97;5039158;28;20871;-84
2023/07/31 08:52:08;;;;;;;6.35;4.97;;;;;;;18.06;88.61;100664.66;5047762;28;20453;-82
2023/07/31 08:54:33;;;;;;;7.00;4.13;;;;;;;18.09;88.75;100665.28;5057508;28;20028;-82
2023/07/31 08:57:00;;;;;;;8.18;4.38;;;;;;;18.07;87.93;100651.16;5041541;28;20028;-82
2023/07/31 08:59:30;;;;;;;7.70;4.47;;;;;;;18.06;88.16;100659.31;5046117;28;20373;-83
2023/07/31 09:01:58;;;;;;;7.78;4.57;;;;;;;18.02;87.76;100658.66;5028962;28;20056;-83
2023/07/31 09:04:23;;;;;;;6.85;4.57;;;;;;;18.09;87.78;100661.72;5028595;28;20124;-82
2023/07/31 09:06:49;;;;;;;8.55;4.50;;;;;;;18.06;88.23;100657.47;5038852;28;20127;-83
2023/07/31 09:09:15;;;;;;;8.52;5.70;;;;;;;18.15;87.52;100658.63;5032445;28;20095;-81
2023/07/31 09:11:40;;;;;;;7.82;4.72;;;;;;;18.25;87.04;100656.97;5035181;28;20028;-82
2023/07/31 09:14:08;;;;;;;8.65;5.13;;;;;;;18.20;87.54;100658.28;5038754;28;20021;-82
2023/07/31 09:16:34;;;;;;;8.82;5.43;;;;;;;18.23;87.20;100660.69;5026295;28;20028;-82
2023/07/31 09:19:01;;;;;;;7.32;5.35;;;;;;;18.29;86.97;100661.13;5033127;28;20372;-83
2023/07/31 09:21:27;;;;;;;9.10;5.70;;;;;;;18.32;87.16;100650.16;5033502;28;20026;-82
2023/07/31 09:23:54;;;;;;;8.13;5.20;;;;;;;18.44;86.54;100650.22;5030979;28;20499;-82
2023/07/31 09:26:30;;;;;;;7.10;4.93;;;;;;;18.54;86.09;100654.75;5043411;28;20052;-82
2023/07/31 09:28:56;;;;;;;8.60;5.28;;;;;;;18.44;85.44;100651.06;5029874;28;20033;-82
2023/07/31 09:31:42;;;;;;;6.50;4.93;;;;;;;18.52;86.00;100642.47;5031932;28;20070;-83
2023/07/31 09:34:08;;;;;;;8.25;5.25;;;;;;;18.57;86.09;100640.28;5026785;28;20036;-82
2023/07/31 09:36:43;;;;;;;7.20;4.75;;;;;;;18.57;85.53;100642.97;5045640;28;20395;-82
2023/07/31 09:39:11;;;;;;;10.38;5.72;;;;;;;18.59;85.08;100639.19;5029985;28;20041;-82
2023/07/31 09:41:38;;;;;;;8.60;5.15;;;;;;;18.68;84.51;100634.94;5035987;28;20150;-83
2023/07/31 09:44:03;;;;;;;6.78;5.13;;;;;;;18.65;84.24;100623.59;5037281;28;20045;-80
2023/07/31 09:46:30;;;;;;;7.50;5.00;;;;;;;18.72;84.80;100636.44;5035227;28;20040;-80
2023/07/31 09:49:06;;;;;;;8.05;4.97;;;;;;;18.79;84.84;100629.66;5042228;28;20026;-80
2023/07/31 09:51:32;;;;;;;7.60;4.30;;;;;;;18.94;83.76;100627.59;5039571;28;20107;-80
2023/07/31 09:53:57;;;;;;;6.57;4.43;;;;;;;18.85;83.83;100631.84;5048451;28;20551;-80
2023/07/31 09:56:23;;;;;;;9.45;4.78;;;;;;;18.91;83.69;100625.16;5033376;28;20040;-80
2023/07/31 09:58:49;;;;;;;7.18;4.47;;;;;;;18.91;82.88;100630.50;5036337;28;20516;-80
2023/07/31 10:01:14;;;;;;;9.52;4.63;;;;;;;18.99;83.44;100627.22;5038541;28;20035;-80
2023/07/31 10:03:41;;;;;;;6.82;4.22;;;;;;;19.08;82.20;100622.00;5025440;28;20049;-80
2023/07/31 10:06:09;;;;;;;8.07;5.10;;;;;;;19.05;82.83;100626.75;5034153;28;20028;-80
2023/07/31 10:08:36;;;;;;;7.20;4.53;;;;;;;19.11;83.10;100627.09;5031191;28;20040;-80
2023/07/31 10:11:02;;;;;;;7.32;4.22;;;;;;;19.13;82.10;100626.16;5038161;28;20048;-80
2023/07/31 10:13:29;;;;;;;8.30;4.60;;;;;;;19.09;82.53;100620.16;5036544;28;20030;-79
2023/07/31 10:15:58;;;;;;;9.65;4.63;;;;;;;19.13;82.21;100618.94;5043188;28;20151;-80
2023/07/31 10:18:24;;;;;;;8.77;4.60;;;;;;;19.20;81.75;100616.63;5045100;28;20028;-80
2023/07/31 10:20:50;;;;;;;9.50;4.22;;;;;;;19.47;81.55;100621.59;5032528;28;20522;-80
2023/07/31 10:23:16;;;;;;;8.55;4.22;;;;;;;19.59;81.07;100609.88;5043258;28;20453;-80
2023/07/31 10:25:42;;;;;;;5.38;4.03;;;;;;;19.62;80.20;100609.66;5042686;28;20063;-81
2023/07/31 10:28:09;;;;;;;6.05;3.97;;;;;;;19.55;80.69;100609.28;5042392;28;20487;-80
2023/07/31 10:30:38;;;;;;;6.40;4.32;;;;;;;19.60;80.96;100611.63;5032227;28;20037;-82
2023/07/31 10:33:04;;;;;;;7.20;3.63;;;;;;;19.70;80.00;100607.19;5040826;28;20127;-81
2023/07/31 10:35:30;;;;;;;3.88;3.13;;;;;;;19.70;79.81;100612.56;5042970;28;20033;-80
2023/07/31 10:37:55;;;;;;;7.75;3.17;;;;;;;19.68;79.59;100609.16;5037540;28;20091;-80
2023/07/31 10:40:26;;;;;;;6.50;3.78;;;;;;;19.69;80.21;100623.44;5047941;28;20111;-81
2023/07/31 10:42:53;;;;;;;6.30;3.58;;;;;;;19.74;79.41;100618.53;5039647;28;20048;-80
2023/07/31 10:45:36;;;;;;;7.50;3.58;;;;;;;19.71;79.66;100624.16;5039897;28;20024;-79
2023/07/31 10:48:06;;;;;;;7.25;3.88;;;;;;;19.69;79.82;100621.59;5043928;28;20480;-79
2023/07/31 10:50:36;;;;;;;6.55;3.75;;;;;;;19.77;80.51;100619.16;5043088;28;20028;-79
2023/07/31 10:53:01;;;;;;;7.35;3.63;;;;;;;19.92;78.29;100624.22;5042297;28;20021;-79
2023/07/31 10:55:32;;;;;;;5.53;3.40;;;;;;;19.83;79.34;100617.78;5047276;28;20064;-79
2023/07/31 10:58:06;;;;;;;5.95;3.95;;;;;;;19.91;79.07;100617.13;5035355;28;20473;-79
2023/07/31 11:00:32;;;;;;;6.68;3.50;;;;;;;19.90;78.58;100608.22;5032042;28;20021;-79
2023/07/31 11:03:02;;;;;;;6.90;3.80;;;;;;;19.94;78.86;100603.47;5041719;28;20025;-80
2023/07/31 11:05:50;;;;;;;4.18;3.33;;;;;;;19.91;77.86;100606.41;5046595;28;20033;-80
2023/07/31 11:08:19;;;;;;;6.15;3.20;;;;;;;19.90;77.66;100613.59;5040671;28;20036;-80
2023/07/31 11:10:45;;;;;;;7.40;3.50;;;;;;;19.95;78.07;100611.38;5047469;28;20025;-80
2023/07/31 11:13:11;;;;;;;5.95;3.75;;;;;;;20.19;76.54;100613.88;5036735;28;20522;-80
2023/07/31 11:15:36;;;;;;;5.43;3.75;;;;;;;20.44;75.98;100604.59;5037105;28;20476;-80
2023/07/31 11:18:05;;;;;;;6.93;3.38;;;;;;;20.56;74.91;100605.38;5040452;28;20108;-80